All Spectrum Aviation - Van Nuys Airport - KVNY

HOME

Condor Squadron KVNY Webcam

Visit our Electronics Store

Condor Squadron Webcam - Van Nuys Airport - KVNY
Picture taken: Sat, 28 Nov 2020 19:56:40 -0800
YouTube Channel!    Latest Timelapse Movie    Full Size Image    Regular Size Image    

2020/11/29 02:51 KVNY 290251Z 35005KT 10SM CLR 17/M11 A3010 RMK AO2 SLP191 T01721106 53007

HOME

Condor Squadron KVNY Webcam

Visit our Electronics Store